Time;durP1;ratioP1;P1;durP2;ratioP2;P2;SDS_P1;SDS_P2;PMS_P1;PMS_P2;Temp;Humidity;BMP_temperature;BMP_pressure;BME280_temperature;BME280_humidity;BME280_pressure;Samples;Min_cycle;Max_cycle;Signal;HPM_P1;HPM_P2
2022/07/02 00:00:45;;;;;;;7.95;7.20;;;;;;;11.34;100.00;163529.84;4994124;28;20493;-60
2022/07/02 00:03:12;;;;;;;8.13;7.15;;;;;;;11.34;100.00;163529.84;5007713;28;20572;-60
2022/07/02 00:05:46;;;;;;;8.33;5.97;;;;;;;11.32;100.00;163524.41;4989771;28;20039;-61
2022/07/02 00:08:12;;;;;;;10.13;6.70;;;;;;;11.29;100.00;163516.28;5000911;28;20870;-61
2022/07/02 00:10:38;;;;;;;12.20;7.43;;;;;;;11.29;100.00;163516.28;5008921;28;20038;-60
2022/07/02 00:13:05;;;;;;;9.15;6.80;;;;;;;11.29;100.00;163516.28;4993554;28;20046;-61
2022/07/02 00:15:31;;;;;;;9.20;7.13;;;;;;;11.26;100.00;163508.22;4989295;28;20042;-61
2022/07/02 00:17:56;;;;;;;7.15;6.55;;;;;;;11.29;100.00;163516.28;4997794;28;20030;-61
2022/07/02 00:20:23;;;;;;;8.07;6.30;;;;;;;11.29;100.00;163516.28;4999815;28;20475;-61
2022/07/02 00:22:49;;;;;;;13.52;8.82;;;;;;;11.29;100.00;163516.28;5007215;28;20030;-60
2022/07/02 00:25:15;;;;;;;7.43;6.25;;;;;;;11.27;100.00;163510.94;5012731;28;20080;-60
2022/07/02 00:27:42;;;;;;;6.43;5.82;;;;;;;11.23;100.00;163500.09;5014310;28;20049;-61
2022/07/02 00:30:08;;;;;;;11.25;6.30;;;;;;;11.19;100.00;163489.31;5002860;28;20058;-61
2022/07/02 00:32:35;;;;;;;7.18;6.50;;;;;;;11.15;100.00;163478.47;5006200;28;20030;-61
2022/07/02 00:35:09;;;;;;;7.97;5.97;;;;;;;11.10;100.00;163467.72;5011549;28;20049;-61
2022/07/02 00:37:36;;;;;;;10.15;8.77;;;;;;;11.05;100.00;163452.84;5013767;28;20048;-61
2022/07/02 00:40:02;;;;;;;10.18;5.90;;;;;;;11.06;100.00;163456.88;4992811;28;20038;-60
2022/07/02 00:42:29;;;;;;;10.60;7.55;;;;;;;11.05;100.00;163454.22;5005167;28;20026;-61
2022/07/02 00:44:57;;;;;;;7.55;6.88;;;;;;;11.00;100.00;163439.34;5012133;28;20596;-62
2022/07/02 00:47:25;;;;;;;7.95;7.25;;;;;;;11.02;100.00;163446.09;5010976;28;20025;-62
2022/07/02 00:49:50;;;;;;;9.60;7.07;;;;;;;11.00;100.00;163439.34;4992726;28;20038;-62
2022/07/02 00:52:16;;;;;;;8.80;7.65;;;;;;;11.01;100.00;163443.38;4993777;28;20029;-62
2022/07/02 00:54:41;;;;;;;10.30;6.63;;;;;;;11.03;100.00;163448.81;4992773;28;20034;-60
2022/07/02 00:57:07;;;;;;;7.85;6.82;;;;;;;11.03;100.00;163448.81;4994209;28;20061;-60
2022/07/02 00:59:33;;;;;;;7.35;6.63;;;;;;;11.01;100.00;163442.06;5013089;28;20025;-60
2022/07/02 01:01:59;;;;;;;17.35;7.00;;;;;;;10.98;100.00;163433.94;5005029;28;20521;-60
2022/07/02 01:04:29;;;;;;;11.95;7.60;;;;;;;10.94;100.00;163425.88;5000548;28;20026;-61
2022/07/02 01:07:00;;;;;;;8.57;7.03;;;;;;;10.93;100.00;163421.78;5011775;28;20065;-61
2022/07/02 01:12:14;;;;;;;9.32;6.70;;;;;;;10.92;100.00;163420.47;5003947;28;20076;-61
2022/07/02 01:14:40;;;;;;;10.75;8.55;;;;;;;10.92;100.00;163419.06;5011748;28;20075;-60
2022/07/02 01:17:05;;;;;;;7.47;6.75;;;;;;;10.89;100.00;163411.00;4996299;28;20470;-61
2022/07/02 01:19:30;;;;;;;10.88;7.78;;;;;;;10.84;100.00;163397.47;4994036;28;20121;-62
2022/07/02 01:22:18;;;;;;;7.75;7.05;;;;;;;10.79;100.00;163386.69;4997190;28;20037;-62
2022/07/02 01:24:49;;;;;;;9.88;7.40;;;;;;;10.76;100.00;163377.25;5012031;28;20053;-62
2022/07/02 01:27:15;;;;;;;7.57;6.45;;;;;;;10.73;100.00;163369.13;5012969;28;20153;-61
2022/07/02 01:29:40;;;;;;;7.88;7.18;;;;;;;10.70;100.00;163362.38;5011254;28;20037;-61
2022/07/02 01:32:07;;;;;;;9.45;7.05;;;;;;;10.68;100.00;163357.03;5004605;28;20051;-63
2022/07/02 01:34:53;;;;;;;8.68;6.75;;;;;;;10.63;100.00;163344.88;4993078;28;20030;-62
2022/07/02 01:37:22;;;;;;;14.02;6.07;;;;;;;10.62;100.00;163340.78;4992833;28;20438;-63
2022/07/02 01:39:48;;;;;;;8.88;6.05;;;;;;;10.63;100.00;163344.88;4991968;28;20027;-63
2022/07/02 01:42:14;;;;;;;14.07;7.68;;;;;;;10.65;100.00;163347.56;5000529;28;20481;-63
2022/07/02 01:44:40;;;;;;;7.13;6.45;;;;;;;10.62;100.00;163342.16;5005302;28;20049;-63
2022/07/02 01:47:07;;;;;;;9.63;7.18;;;;;;;10.60;100.00;163335.41;4992886;28;20414;-63
2022/07/02 01:49:33;;;;;;;9.85;7.15;;;;;;;10.55;100.00;163321.88;4995449;28;20049;-63
2022/07/02 01:51:58;;;;;;;8.80;7.18;;;;;;;10.62;100.00;163340.78;5004963;28;20042;-63
2022/07/02 01:54:24;;;;;;;7.53;6.82;;;;;;;10.60;100.00;163335.41;4992930;28;20030;-63
2022/07/02 01:56:49;;;;;;;7.32;6.70;;;;;;;10.60;100.00;163335.41;4991547;28;20039;-63
2022/07/02 01:59:15;;;;;;;8.30;7.20;;;;;;;10.60;100.00;163335.41;4992521;28;20086;-63
2022/07/02 02:01:41;;;;;;;8.98;8.05;;;;;;;10.57;100.00;163327.28;5007686;28;20116;-63
2022/07/02 02:04:07;;;;;;;7.55;6.50;;;;;;;10.57;100.00;163327.28;4992767;28;20124;-63
2022/07/02 02:06:32;;;;;;;12.63;7.95;;;;;;;10.53;100.00;163316.53;4991200;28;20624;-62
2022/07/02 02:08:58;;;;;;;7.72;7.05;;;;;;;10.53;100.00;163317.84;4992566;28;20070;-62
2022/07/02 02:11:23;;;;;;;12.18;8.38;;;;;;;10.53;100.00;163317.84;5007209;28;20041;-62
2022/07/02 02:13:49;;;;;;;9.38;7.50;;;;;;;10.53;100.00;163316.53;4992856;28;20080;-63
2022/07/02 02:16:14;;;;;;;8.02;7.32;;;;;;;10.51;100.00;163311.09;4991208;28;20042;-63
2022/07/02 02:18:39;;;;;;;9.80;7.63;;;;;;;10.50;100.00;163308.41;5003064;28;20036;-62
2022/07/02 02:21:05;;;;;;;12.32;8.10;;;;;;;10.47;100.00;163303.00;5009926;28;20042;-63
2022/07/02 02:23:30;;;;;;;11.07;7.90;;;;;;;10.47;100.00;163303.00;4995103;28;20031;-63
2022/07/02 02:25:55;;;;;;;9.98;9.07;;;;;;;10.46;100.00;163300.28;4991084;28;20058;-61
2022/07/02 02:28:22;;;;;;;12.60;7.95;;;;;;;10.45;100.00;163296.25;4999877;28;20042;-62
2022/07/02 02:30:48;;;;;;;12.68;8.02;;;;;;;10.46;100.00;163300.28;5010506;28;20639;-62
2022/07/02 02:33:13;;;;;;;10.43;7.55;;;;;;;10.46;100.00;163300.28;5002644;28;20026;-61
2022/07/02 02:35:38;;;;;;;10.77;7.95;;;;;;;10.46;100.00;163300.28;5010270;28;20064;-62
2022/07/02 02:38:04;;;;;;;13.15;8.05;;;;;;;10.49;100.00;163307.06;4993633;28;20066;-62
2022/07/02 02:40:29;;;;;;;12.32;8.65;;;;;;;10.50;100.00;163309.72;4990613;28;20046;-62
2022/07/02 02:42:54;;;;;;;12.35;6.50;;;;;;;10.52;100.00;163313.81;5003214;28;20500;-61
2022/07/02 02:45:20;;;;;;;10.13;7.65;;;;;;;10.51;100.00;163312.44;5009665;28;20405;-62
2022/07/02 02:47:45;;;;;;;10.05;8.55;;;;;;;10.53;100.00;163316.53;4992116;28;20029;-62
2022/07/02 02:50:10;;;;;;;10.40;7.70;;;;;;;10.54;100.00;163319.19;4990061;28;20042;-62
2022/07/02 02:52:36;;;;;;;8.90;7.75;;;;;;;10.54;100.00;163319.19;5000700;28;20021;-62
2022/07/02 02:55:01;;;;;;;12.57;8.48;;;;;;;10.55;100.00;163321.88;5009737;28;20502;-62
2022/07/02 02:57:27;;;;;;;8.57;7.72;;;;;;;10.57;100.00;163327.28;5011422;28;20114;-62
2022/07/02 02:59:52;;;;;;;8.85;7.05;;;;;;;10.53;100.00;163317.84;5010052;28;20017;-62
2022/07/02 03:02:18;;;;;;;8.93;7.75;;;;;;;10.52;100.00;163313.81;5007057;28;20026;-61
2022/07/02 03:04:43;;;;;;;12.57;9.18;;;;;;;10.54;100.00;163319.19;5009759;28;20034;-62
2022/07/02 03:07:08;;;;;;;11.50;8.98;;;;;;;10.54;100.00;163320.56;5011081;28;20022;-61
2022/07/02 03:09:34;;;;;;;12.63;8.68;;;;;;;10.54;100.00;163319.19;5008226;28;20030;-62
2022/07/02 03:11:59;;;;;;;9.43;8.63;;;;;;;10.57;100.00;163327.28;5010393;28;20068;-62
2022/07/02 03:14:24;;;;;;;13.02;9.45;;;;;;;10.53;100.00;163316.53;5011033;28;20118;-62
2022/07/02 03:16:50;;;;;;;12.48;9.48;;;;;;;10.53;100.00;163317.84;5008709;28;20041;-61
2022/07/02 03:19:15;;;;;;;16.48;8.85;;;;;;;10.52;100.00;163315.13;5011023;28;20030;-62
2022/07/02 03:21:40;;;;;;;10.23;8.90;;;;;;;10.54;100.00;163320.56;5007965;28;20048;-62
2022/07/02 03:24:06;;;;;;;13.70;9.75;;;;;;;10.53;100.00;163316.53;4991038;28;20092;-61
2022/07/02 03:26:31;;;;;;;20.48;9.23;;;;;;;10.54;100.00;163319.19;4989832;28;20065;-61
2022/07/02 03:28:57;;;;;;;10.02;9.13;;;;;;;10.54;100.00;163319.19;4990767;28;20030;-62
2022/07/02 03:31:22;;;;;;;13.27;9.90;;;;;;;10.54;100.00;163319.19;4991799;28;20034;-62
2022/07/02 03:33:47;;;;;;;20.38;13.38;;;;;;;10.60;100.00;163335.41;5008601;28;20088;-61
2022/07/02 03:36:13;;;;;;;13.85;8.85;;;;;;;10.59;100.00;163332.72;5005658;28;20038;-61
2022/07/02 03:38:39;;;;;;;16.70;10.10;;;;;;;10.56;100.00;163324.59;4997842;28;20026;-61
2022/07/02 03:41:06;;;;;;;10.10;8.38;;;;;;;10.61;100.00;163338.13;5009085;28;20092;-61
2022/07/02 03:43:32;;;;;;;11.13;10.02;;;;;;;10.60;100.00;163336.75;4994446;28;20049;-61
2022/07/02 03:45:57;;;;;;;11.05;10.05;;;;;;;10.66;100.00;163351.59;4990361;28;20034;-61
2022/07/02 03:48:22;;;;;;;16.48;11.27;;;;;;;10.71;100.00;163365.09;5010755;28;20052;-62
2022/07/02 03:50:48;;;;;;;17.77;12.25;;;;;;;10.74;100.00;163373.22;5008707;28;20046;-61
2022/07/02 03:53:13;;;;;;;23.40;12.45;;;;;;;10.80;100.00;163388.03;4996764;28;20034;-62
2022/07/02 03:55:39;;;;;;;15.68;10.18;;;;;;;10.83;100.00;163394.81;4989301;28;20452;-62
2022/07/02 03:58:05;;;;;;;21.25;9.48;;;;;;;10.79;100.00;163386.69;4990417;28;20030;-61
2022/07/02 04:00:30;;;;;;;15.88;10.52;;;;;;;10.82;100.00;163393.44;4989692;28;20038;-62
2022/07/02 04:02:55;;;;;;;15.10;9.68;;;;;;;10.88;100.00;163409.63;5004787;28;20029;-62
2022/07/02 04:05:21;;;;;;;15.23;9.75;;;;;;;10.93;100.00;163421.78;4995877;28;20042;-61
2022/07/02 04:07:46;;;;;;;12.35;9.13;;;;;;;10.97;100.00;163432.63;4991151;28;20022;-61
2022/07/02 04:10:11;;;;;;;16.55;11.68;;;;;;;11.02;100.00;163444.78;4989157;28;20050;-62
2022/07/02 04:12:37;;;;;;;15.55;9.48;;;;;;;11.04;100.00;163451.50;4992212;28;20041;-64
2022/07/02 04:15:03;;;;;;;15.10;10.13;;;;;;;11.10;100.00;163466.31;4989347;28;20529;-62
2022/07/02 04:17:29;;;;;;;12.10;9.10;;;;;;;11.16;100.00;163481.19;4990627;28;20068;-62
2022/07/02 04:19:55;;;;;;;19.02;10.13;;;;;;;11.20;100.00;163493.34;4989107;28;20038;-62
2022/07/02 04:22:20;;;;;;;13.35;8.95;;;;;;;11.27;100.00;163512.25;4990876;28;20034;-63
2022/07/02 04:24:45;;;;;;;14.65;10.40;;;;;;;11.33;100.00;163527.13;5003452;28;20044;-63
2022/07/02 04:27:11;;;;;;;12.35;8.82;;;;;;;11.39;100.00;163543.31;5008760;28;20100;-62
2022/07/02 04:29:36;;;;;;;10.80;8.52;;;;;;;11.47;100.00;163562.22;4992745;28;20118;-62
2022/07/02 04:32:01;;;;;;;12.40;9.85;;;;;;;11.52;100.00;163575.72;5003983;28;20421;-62
2022/07/02 04:34:27;;;;;;;11.80;10.32;;;;;;;11.61;100.00;163600.03;4991924;28;20038;-62
2022/07/02 04:36:52;;;;;;;10.23;9.10;;;;;;;11.67;100.00;163616.22;4991930;28;20077;-63
2022/07/02 04:39:17;;;;;;;16.05;10.38;;;;;;;11.74;100.00;163635.16;5000544;28;20030;-63
2022/07/02 04:41:43;;;;;;;17.65;10.65;;;;;;;11.83;100.00;163656.75;5011717;28;20493;-62
2022/07/02 04:44:08;;;;;;;11.60;9.27;;;;;;;11.91;100.00;163678.38;5030033;28;20056;-61
2022/07/02 04:46:34;;;;;;;14.45;10.60;;;;;;;12.01;100.00;163705.47;5028639;28;20536;-60
2022/07/02 04:48:59;;;;;;;12.82;9.90;;;;;;;12.09;100.00;163724.38;5006676;28;20041;-60
2022/07/02 04:51:24;;;;;;;14.45;12.15;;;;;;;12.17;100.00;163746.00;5008685;28;20478;-60
2022/07/02 04:53:50;;;;;;;13.30;9.52;;;;;;;12.27;100.00;163771.66;5010064;28;20074;-61
2022/07/02 04:56:15;;;;;;;9.30;8.30;;;;;;;12.35;100.00;163794.63;4999181;28;20046;-63
2022/07/02 04:58:40;;;;;;;11.10;8.82;;;;;;;12.45;100.00;163820.28;4990191;28;20026;-59
2022/07/02 05:01:06;;;;;;;14.07;8.10;;;;;;;12.53;100.00;163840.59;4993398;28;20490;-59
2022/07/02 05:03:31;;;;;;;13.70;8.85;;;;;;;12.65;100.00;163871.69;4994112;28;20022;-59
2022/07/02 05:05:57;;;;;;;13.95;9.75;;;;;;;12.76;100.00;163900.06;5003134;28;20073;-59
2022/07/02 05:08:26;;;;;;;14.57;9.77;;;;;;;12.85;100.00;163924.34;5011575;28;20022;-59
2022/07/02 05:10:52;;;;;;;17.35;8.52;;;;;;;12.96;100.00;163954.13;4997428;28;20046;-59
2022/07/02 05:13:17;;;;;;;16.52;9.00;;;;;;;13.06;100.00;163978.47;5000765;28;20029;-59
2022/07/02 05:15:43;;;;;;;15.05;8.13;;;;;;;13.19;100.00;164013.59;5007692;28;20156;-59
2022/07/02 05:18:09;;;;;;;13.55;7.95;;;;;;;13.35;100.00;164054.16;5011543;28;20025;-59
2022/07/02 05:20:34;;;;;;;10.00;7.60;;;;;;;13.41;100.00;164071.75;4997391;28;20117;-59
2022/07/02 05:22:59;;;;;;;10.05;7.78;;;;;;;13.48;100.00;164089.34;5009181;28;20033;-59
2022/07/02 05:25:25;;;;;;;9.82;7.43;;;;;;;13.67;100.00;164139.41;4996757;28;20046;-59
2022/07/02 05:27:50;;;;;;;7.95;7.18;;;;;;;13.95;100.00;164213.78;5005229;28;20046;-59
2022/07/02 05:30:15;;;;;;;10.98;6.57;;;;;;;14.30;100.00;164304.38;4999625;28;20042;-60
2022/07/02 05:32:41;;;;;;;8.77;5.68;;;;;;;14.54;100.00;164368.00;4996873;28;20474;-60
2022/07/02 05:35:06;;;;;;;7.03;5.93;;;;;;;14.63;100.00;164391.00;4992319;28;20113;-59
2022/07/02 05:37:32;;;;;;;16.55;6.63;;;;;;;14.64;100.00;164392.31;5010713;28;20034;-60
2022/07/02 05:39:57;;;;;;;9.88;6.20;;;;;;;14.69;100.00;164407.28;4999385;28;20042;-60
2022/07/02 05:42:22;;;;;;;21.42;7.20;;;;;;;14.71;100.00;164411.31;5009204;28;20615;-60
2022/07/02 05:44:48;;;;;;;6.28;5.38;;;;;;;14.78;100.00;164430.25;5011971;28;20056;-60
2022/07/02 05:47:13;;;;;;;12.80;6.95;;;;;;;14.79;100.00;164431.66;5018660;28;20037;-60
2022/07/02 05:49:38;;;;;;;10.40;4.97;;;;;;;14.75;100.00;164422.16;5013690;28;20033;-59
2022/07/02 05:52:04;;;;;;;12.13;6.30;;;;;;;14.79;100.00;164432.97;5020900;28;20025;-59
2022/07/02 05:54:29;;;;;;;10.73;5.65;;;;;;;14.88;100.00;164457.34;5020308;28;20246;-60
2022/07/02 05:56:55;;;;;;;9.45;5.18;;;;;;;15.04;100.00;164497.94;5016184;28;20041;-59
2022/07/02 05:59:22;;;;;;;11.45;5.00;;;;;;;15.18;100.00;164535.84;5019491;28;20026;-59
2022/07/02 06:01:48;;;;;;;13.70;5.10;;;;;;;15.34;100.00;164577.78;5017780;28;20034;-59
2022/07/02 06:04:13;;;;;;;11.23;5.80;;;;;;;15.48;100.00;164614.34;5016465;28;20024;-61
2022/07/02 06:09:22;;;;;;;11.68;5.15;;;;;;;15.75;100.00;164684.75;4999556;28;20050;-61
2022/07/02 06:11:48;;;;;;;5.63;3.88;;;;;;;15.92;100.00;164728.13;4998876;28;20038;-61
2022/07/02 06:14:13;;;;;;;8.15;3.45;;;;;;;16.03;100.00;164757.94;5002044;28;20029;-58
2022/07/02 06:16:38;;;;;;;11.10;4.68;;;;;;;16.25;100.00;164816.16;5002575;28;20049;-58
2022/07/02 06:19:06;;;;;;;14.80;5.05;;;;;;;16.43;100.00;164863.56;5008568;28;20053;-58
2022/07/02 06:21:32;;;;;;;5.60;3.40;;;;;;;16.64;100.00;164919.13;4994838;28;20047;-57
2022/07/02 06:23:57;;;;;;;9.02;3.65;;;;;;;16.81;100.00;164963.81;4991986;28;20034;-58
2022/07/02 06:26:22;;;;;;;8.25;3.95;;;;;;;17.00;100.00;165012.66;4997460;28;20465;-58
2022/07/02 06:28:48;;;;;;;8.88;3.17;;;;;;;17.19;100.00;165061.41;5010581;28;20412;-58
2022/07/02 06:31:13;;;;;;;5.72;2.55;;;;;;;17.44;100.00;165127.81;5009917;28;20033;-59
2022/07/02 06:33:41;;;;;;;8.00;4.65;;;;;;;17.77;100.00;165215.91;5011312;28;20021;-60
2022/07/02 06:36:10;;;;;;;7.80;3.83;;;;;;;17.96;100.00;165264.78;5003027;28;20426;-58
2022/07/02 06:38:37;;;;;;;3.92;3.55;;;;;;;18.28;100.00;165348.81;4991823;28;20045;-58
2022/07/02 06:42:18;;;;;;;3.63;2.63;;;;;;;18.61;100.00;165435.63;4993242;28;20046;-58
2022/07/02 06:43:48;;;;;;;9.85;3.45;;;;;;;18.92;100.00;165517.06;5016110;28;20038;-58
2022/07/02 06:46:13;;;;;;;7.72;2.58;;;;;;;19.23;100.00;165598.44;5017310;28;20052;-58
2022/07/02 06:48:38;;;;;;;3.42;2.53;;;;;;;19.42;100.00;165647.25;5021051;28;20029;-58
2022/07/02 06:51:04;;;;;;;7.20;3.20;;;;;;;19.61;100.00;165698.84;5017809;28;20046;-58
2022/07/02 06:53:29;;;;;;;4.68;2.42;;;;;;;19.73;100.00;165728.69;5018681;28;20029;-58
2022/07/02 06:55:55;;;;;;;10.63;3.17;;;;;;;19.86;100.00;165762.66;5016884;28;20498;-58
2022/07/02 06:58:20;;;;;;;10.35;2.10;;;;;;;19.90;100.00;165773.50;5030828;28;20455;-58
2022/07/02 07:00:46;;;;;;;3.80;1.88;;;;;;;19.92;100.00;165780.28;5029370;28;20041;-58
2022/07/02 07:03:11;;;;;;;2.90;1.60;;;;;;;20.00;100.00;165799.28;5001170;28;20035;-58
2022/07/02 07:05:38;;;;;;;2.83;1.85;;;;;;;20.01;100.00;165802.00;4988614;28;20505;-58
2022/07/02 07:08:04;;;;;;;5.63;1.77;;;;;;;20.00;100.00;165799.28;5008895;28;20105;-58
2022/07/02 07:10:31;;;;;;;4.30;1.48;;;;;;;19.99;100.00;165797.94;5000576;28;20558;-58
2022/07/02 07:12:56;;;;;;;3.63;1.58;;;;;;;20.01;100.00;165803.38;4984028;28;20054;-58
2022/07/02 07:15:22;;;;;;;3.28;1.75;;;;;;;20.05;100.00;165812.88;4976225;28;20042;-58
2022/07/02 07:17:47;;;;;;;3.00;1.50;;;;;;;20.13;100.00;165834.59;4995040;28;20030;-59
2022/07/02 07:20:16;;;;;;;4.30;1.30;;;;;;;20.12;100.00;165831.88;4989749;28;20038;-59
2022/07/02 07:22:42;;;;;;;2.92;2.20;;;;;;;20.15;100.00;165838.66;4996215;28;20018;-58
2022/07/02 07:25:08;;;;;;;6.90;1.75;;;;;;;19.99;100.00;165796.59;4989811;28;20042;-58
2022/07/02 07:27:33;;;;;;;4.72;1.52;;;;;;;19.82;100.00;165753.13;4990549;28;20498;-65
2022/07/02 07:29:58;;;;;;;9.20;2.25;;;;;;;20.05;100.00;165814.22;4982348;28;20057;-58
2022/07/02 07:32:24;;;;;;;2.47;1.40;;;;;;;20.37;100.00;165897.00;4987968;28;20037;-58
2022/07/02 07:34:49;;;;;;;3.13;1.90;;;;;;;20.86;100.00;166027.41;4984545;28;20018;-58
2022/07/02 07:37:15;;;;;;;2.00;1.23;;;;;;;20.88;100.00;166032.84;4982581;28;20042;-58
2022/07/02 07:39:41;;;;;;;4.68;1.27;;;;;;;20.72;100.00;165989.34;4977182;28;20034;-58
2022/07/02 07:42:06;;;;;;;3.75;1.80;;;;;;;20.99;100.00;166059.97;5009593;28;20029;-58
2022/07/02 07:44:32;;;;;;;4.43;1.20;;;;;;;21.14;100.00;166100.72;4992824;28;20077;-62
2022/07/02 07:46:57;;;;;;;6.45;1.50;;;;;;;21.07;100.00;166083.06;4969599;28;20416;-58
2022/07/02 07:49:23;;;;;;;3.13;1.10;;;;;;;21.19;100.00;166114.28;4980670;28;20034;-58
2022/07/02 07:51:48;;;;;;;10.02;2.03;;;;;;;21.22;100.00;166122.47;4989223;28;20049;-58
2022/07/02 07:54:13;;;;;;;13.15;1.75;;;;;;;21.22;100.00;166121.13;4990108;28;20158;-58
2022/07/02 07:56:41;;;;;;;4.32;1.30;;;;;;;21.63;100.00;166228.47;5000537;28;20046;-58
2022/07/02 07:59:06;;;;;;;4.80;2.05;;;;;;;21.38;100.00;166164.53;4990646;28;20052;-58
2022/07/02 08:01:32;;;;;;;3.65;1.45;;;;;;;21.53;100.00;166203.94;4988804;28;20046;-58
2022/07/02 08:03:57;;;;;;;9.23;2.50;;;;;;;21.74;100.00;166258.31;4990503;28;20463;-58
2022/07/02 08:06:22;;;;;;;2.17;1.08;;;;;;;21.45;100.00;166182.22;4989885;28;20406;-58
2022/07/02 08:08:48;;;;;;;7.75;1.38;;;;;;;21.64;100.00;166232.53;4990323;28;20026;-58
2022/07/02 08:11:13;;;;;;;8.15;1.70;;;;;;;22.23;100.00;166386.06;4988903;28;20042;-58
2022/07/02 08:13:39;;;;;;;5.55;1.58;;;;;;;22.58;100.00;166478.47;5002457;28;20096;-58
2022/07/02 08:16:04;;;;;;;3.40;1.55;;;;;;;22.56;100.00;166473.03;5006443;28;20050;-58
2022/07/02 08:18:32;;;;;;;3.53;1.95;;;;;;;22.81;100.00;166541.00;5010224;28;20041;-58
2022/07/02 08:20:57;;;;;;;;;;;;;;;22.98;100.00;166584.47;5007173;28;20049;-58
2022/07/02 08:23:23;;;;;;;2.47;1.17;;;;;;;23.17;100.00;166633.41;4990373;28;19910;-58
2022/07/02 08:25:48;;;;;;;5.18;1.42;;;;;;;23.06;100.00;166606.22;4989091;28;20038;-58
2022/07/02 08:28:13;;;;;;;6.13;1.48;;;;;;;23.22;100.00;166647.06;4990123;28;20054;-59
2022/07/02 08:30:39;;;;;;;6.63;1.60;;;;;;;23.17;100.00;166633.41;4992900;28;20039;-57
2022/07/02 08:33:04;;;;;;;20.25;2.85;;;;;;;23.50;100.00;166720.44;5001788;28;20025;-58
2022/07/02 08:35:30;;;;;;;2.78;1.42;;;;;;;23.43;100.00;166702.81;5007821;28;20042;-58
2022/07/02 08:37:55;;;;;;;3.00;1.35;;;;;;;23.51;100.00;166724.56;5009212;28;20504;-62
2022/07/02 08:40:25;;;;;;;4.82;1.20;;;;;;;23.07;100.00;166608.94;5007721;28;20457;-61
2022/07/02 08:42:53;;;;;;;2.83;1.30;;;;;;;23.10;100.00;166617.13;5013208;28;20026;-60
2022/07/02 08:45:21;;;;;;;3.63;1.92;;;;;;;22.83;100.00;166545.06;5011820;28;20065;-61
2022/07/02 08:47:46;;;;;;;;;;;;;;;22.50;100.00;166459.47;5014129;28;20153;-61
2022/07/02 08:50:13;;;;;;;5.43;2.10;;;;;;;22.60;100.00;166483.94;5002990;28;19954;-60
2022/07/02 08:52:39;;;;;;;6.97;1.45;;;;;;;22.71;100.00;166513.81;5009956;28;20025;-59
2022/07/02 08:55:05;;;;;;;4.88;1.77;;;;;;;22.61;100.00;166486.63;5011971;28;20065;-59
2022/07/02 08:57:32;;;;;;;5.93;2.15;;;;;;;22.85;100.00;166549.13;5013273;28;20034;-60
2022/07/02 08:59:58;;;;;;;3.53;1.55;;;;;;;22.80;100.00;166536.91;5011385;28;20034;-57
2022/07/02 09:02:27;;;;;;;4.07;1.45;;;;;;;23.10;100.00;166617.13;5002382;28;20053;-57
2022/07/02 09:04:53;;;;;;;3.58;1.58;;;;;;;23.42;100.00;166701.41;5007244;28;20021;-57
2022/07/02 09:07:19;;;;;;;8.55;2.20;;;;;;;23.60;100.00;166747.66;4998597;28;20026;-57
2022/07/02 09:09:45;;;;;;;5.80;1.20;;;;;;;23.85;100.00;166812.94;4995968;28;20650;-57
2022/07/02 09:12:13;;;;;;;8.27;2.05;;;;;;;24.21;100.00;166908.19;4993048;28;20619;-57
2022/07/02 09:14:40;;;;;;;5.78;1.33;;;;;;;24.43;100.00;166965.31;5010169;28;20042;-57
2022/07/02 09:17:06;;;;;;;4.28;1.40;;;;;;;24.13;100.00;166886.41;5012651;28;20030;-57
2022/07/02 09:19:32;;;;;;;6.28;1.70;;;;;;;23.98;100.00;166848.34;5012861;28;20056;-57
2022/07/02 09:21:57;;;;;;;5.18;1.88;;;;;;;24.00;100.00;166853.78;5011185;28;20069;-58
2022/07/02 09:24:30;;;;;;;6.03;1.70;;;;;;;24.38;100.00;166953.06;5009561;28;20034;-57
2022/07/02 09:27:03;;;;;;;3.78;1.08;;;;;;;24.25;100.00;166919.03;4991410;28;20066;-57
2022/07/02 09:29:49;;;;;;;3.83;1.10;;;;;;;24.48;100.00;166978.88;5011732;28;20053;-58
2022/07/02 09:32:16;;;;;;;3.50;1.45;;;;;;;24.10;100.00;166879.63;5011152;28;20100;-57
2022/07/02 09:34:50;;;;;;;2.83;1.27;;;;;;;24.55;100.00;166997.94;5011387;28;20028;-58
2022/07/02 09:37:18;;;;;;;7.13;2.00;;;;;;;24.11;100.00;166880.97;4996235;28;20030;-57
2022/07/02 09:39:45;;;;;;;8.60;1.52;;;;;;;23.91;100.00;166830.59;4991765;28;20048;-57
2022/07/02 09:42:31;;;;;;;2.42;1.45;;;;;;;24.12;100.00;166885.06;4992756;28;20022;-58
2022/07/02 09:44:59;;;;;;;5.63;1.45;;;;;;;24.64;100.00;167021.09;4990874;28;20685;-58
2022/07/02 09:47:35;;;;;;;3.88;0.90;;;;;;;24.50;100.00;166985.69;5009321;28;20033;-58
2022/07/02 09:50:03;;;;;;;3.92;1.58;;;;;;;24.20;100.00;166906.78;5000641;28;20066;-58
2022/07/02 09:52:28;;;;;;;5.32;1.92;;;;;;;23.67;100.00;166766.69;5006173;28;20473;-57
2022/07/02 09:54:54;;;;;;;5.07;1.77;;;;;;;23.48;100.00;166715.03;5010957;28;20056;-57
2022/07/02 09:57:19;;;;;;;2.60;1.00;;;;;;;23.41;100.00;166697.34;4995847;28;20034;-57
2022/07/02 09:59:45;;;;;;;3.33;1.23;;;;;;;23.64;100.00;166758.56;4991246;28;20026;-57
2022/07/02 10:02:24;;;;;;;3.22;1.33;;;;;;;23.89;100.00;166823.81;4992402;28;20030;-57
2022/07/02 10:04:53;;;;;;;1.45;1.10;;;;;;;23.75;100.00;166787.13;5001220;28;20026;-57
2022/07/02 10:07:23;;;;;;;2.05;1.08;;;;;;;23.34;100.00;166678.31;4991904;28;20425;-58
2022/07/02 10:09:50;;;;;;;1.17;0.80;;;;;;;22.96;100.00;166579.06;4993050;28;20022;-57
2022/07/02 10:12:17;;;;;;;6.25;1.73;;;;;;;23.30;100.00;166668.81;5012085;28;20064;-57
2022/07/02 10:14:44;;;;;;;2.70;1.13;;;;;;;23.32;100.00;166674.25;4999150;28;20041;-57
2022/07/02 10:17:10;;;;;;;2.33;1.40;;;;;;;23.80;100.00;166799.31;4992384;28;20026;-57
2022/07/02 10:19:37;;;;;;;3.40;0.90;;;;;;;23.95;100.00;166840.16;5010220;28;20389;-57
2022/07/02 10:22:04;;;;;;;4.50;1.33;;;;;;;23.60;100.00;166747.66;5019854;28;20030;-57
2022/07/02 10:24:31;;;;;;;3.92;1.98;;;;;;;23.25;100.00;166655.22;5017564;28;20423;-57
2022/07/02 10:26:59;;;;;;;8.20;1.77;;;;;;;22.75;100.00;166523.31;5024299;28;20135;-57
2022/07/02 10:29:24;;;;;;;11.38;1.40;;;;;;;22.54;100.00;166467.59;5031620;28;20360;-57
2022/07/02 10:31:57;;;;;;;5.35;0.93;;;;;;;22.61;100.00;166486.63;5025104;28;20052;-57
2022/07/02 10:34:50;;;;;;;5.95;1.42;;;;;;;23.32;100.00;166674.25;5008101;28;20164;-57
2022/07/02 10:37:16;;;;;;;3.03;1.63;;;;;;;23.57;100.00;166740.88;4994758;28;20046;-57
2022/07/02 10:39:42;;;;;;;5.45;1.08;;;;;;;23.68;100.00;166769.41;4998672;28;20028;-57
2022/07/02 10:42:08;;;;;;;3.20;1.15;;;;;;;23.29;100.00;166666.09;5002716;28;20030;-57
2022/07/02 10:44:45;;;;;;;5.93;1.23;;;;;;;23.45;100.00;166709.59;5005096;28;20101;-57
2022/07/02 10:47:25;;;;;;;4.18;1.42;;;;;;;24.01;99.82;166856.53;4990646;28;20051;-57
2022/07/02 10:49:58;;;;;;;2.67;0.90;;;;;;;24.60;100.00;167011.56;4989898;28;20022;-57
2022/07/02 10:52:51;;;;;;;4.97;0.85;;;;;;;24.94;97.88;167100.03;4980532;28;20101;-57
2022/07/02 10:55:29;;;;;;;1.70;0.80;;;;;;;25.07;92.69;167135.41;4993388;28;20049;-57
2022/07/02 10:58:03;;;;;;;2.83;1.33;;;;;;;24.70;94.61;167038.78;5010241;28;20026;-57
2022/07/02 11:00:32;;;;;;;3.72;0.93;;;;;;;25.01;93.87;167119.09;5011004;28;20045;-57
2022/07/02 11:03:09;;;;;;;8.82;1.80;;;;;;;25.08;89.97;167136.75;4997267;28;20143;-57
2022/07/02 11:05:35;;;;;;;3.63;1.15;;;;;;;24.81;90.63;167066.00;5007367;28;20060;-57
2022/07/02 11:08:00;;;;;;;6.50;1.42;;;;;;;25.39;97.90;167218.44;5010521;28;20023;-57
2022/07/02 11:10:27;;;;;;;3.50;0.90;;;;;;;25.82;83.98;167332.75;4996805;28;20051;-57
2022/07/02 11:13:01;;;;;;;3.25;1.33;;;;;;;25.18;80.95;167163.97;5004161;28;20024;-57
2022/07/02 11:15:35;;;;;;;5.03;1.15;;;;;;;24.50;86.17;166985.69;5009017;28;20046;-57
2022/07/02 11:18:03;;;;;;;1.80;0.73;;;;;;;24.45;88.31;166970.75;5013917;28;20026;-58